createdAt,value
2023-04-11T00:00:58.810Z,36.64
2023-04-11T00:01:58.885Z,36.63
2023-04-11T00:02:59.119Z,34.62
2023-04-11T00:03:59.158Z,37.29
2023-04-11T00:04:59.146Z,39.06
2023-04-11T00:05:59.078Z,39.55
2023-04-11T00:06:59.101Z,35.89
2023-04-11T00:07:59.152Z,35.75
2023-04-11T00:08:59.272Z,36.32
2023-04-11T00:09:59.294Z,33.97
2023-04-11T00:10:59.365Z,36.40
2023-04-11T00:11:59.407Z,36.67
2023-04-11T00:12:59.457Z,39.37
2023-04-11T00:14:01.099Z,34.59
2023-04-11T00:14:59.571Z,35.43
2023-04-11T00:15:59.641Z,36.77
2023-04-11T00:16:59.660Z,34.45
2023-04-11T00:17:59.768Z,40.08
2023-04-11T00:18:59.806Z,38.24
2023-04-11T00:19:59.825Z,37.00
2023-04-11T00:20:59.900Z,36.83
2023-04-11T00:21:59.942Z,37.66
2023-04-11T00:22:59.993Z,35.97
2023-04-11T00:24:00.089Z,34.58
2023-04-11T00:25:00.166Z,39.40
2023-04-11T00:26:00.167Z,35.71
2023-04-11T00:27:00.227Z,38.20
2023-04-11T00:28:00.277Z,36.67
2023-04-11T00:29:00.345Z,36.19
2023-04-11T00:30:00.383Z,36.41
2023-04-11T00:31:00.451Z,35.71
2023-04-11T00:32:00.582Z,34.11
2023-04-11T00:33:00.635Z,38.21
2023-04-11T00:34:00.622Z,37.40
2023-04-11T00:35:00.683Z,36.76
2023-04-11T00:36:00.785Z,36.12
2023-04-11T00:37:00.748Z,37.58
2023-04-11T00:38:00.794Z,38.46
2023-04-11T00:39:00.852Z,36.29
2023-04-11T00:40:00.902Z,37.28
2023-04-11T00:41:00.921Z,37.46
2023-04-11T00:42:00.992Z,38.63
2023-04-11T00:43:01.053Z,35.22
2023-04-11T00:44:01.161Z,37.36
2023-04-11T00:45:01.164Z,36.49
2023-04-11T00:46:01.279Z,34.54
2023-04-11T00:47:01.313Z,35.46
2023-04-11T00:48:01.367Z,35.17
2023-04-11T00:49:01.456Z,36.21
2023-04-11T00:50:01.422Z,36.22
2023-04-11T00:51:01.485Z,34.86
2023-04-11T00:52:01.509Z,36.68
2023-04-11T00:53:01.641Z,36.10
2023-04-11T00:54:01.654Z,36.19
2023-04-11T00:55:01.673Z,37.19
2023-04-11T00:56:01.772Z,37.06
2023-04-11T00:57:01.823Z,35.46
2023-04-11T00:58:01.837Z,36.00
2023-04-11T00:59:01.913Z,36.85
2023-04-11T01:00:01.999Z,37.31
2023-04-11T01:01:02.083Z,33.17
2023-04-11T01:02:02.263Z,35.43
2023-04-11T01:03:02.297Z,33.93
2023-04-11T01:04:02.420Z,37.49
2023-04-11T01:05:02.256Z,35.84
2023-04-11T01:06:02.259Z,36.46
2023-04-11T01:07:02.341Z,35.27
2023-04-11T01:08:02.384Z,37.48
2023-04-11T01:09:02.424Z,37.26
2023-04-11T01:10:02.451Z,36.21
2023-04-11T01:11:02.522Z,35.77
2023-04-11T01:12:02.576Z,36.54
2023-04-11T01:13:02.670Z,36.61
2023-04-11T01:14:02.702Z,35.31
2023-04-11T01:15:02.735Z,33.50
2023-04-11T01:16:02.807Z,37.36
2023-04-11T01:17:03.012Z,36.25
2023-04-11T01:18:03.003Z,36.16
2023-04-11T01:19:02.967Z,35.73
2023-04-11T01:20:03.045Z,36.87
2023-04-11T01:21:03.063Z,37.86
2023-04-11T01:22:03.156Z,36.15
2023-04-11T01:23:03.212Z,35.65
2023-04-11T01:24:03.274Z,36.73
2023-04-11T01:25:03.279Z,35.63
2023-04-11T01:26:03.338Z,34.19
2023-04-11T01:27:03.440Z,34.98
2023-04-11T01:28:03.424Z,37.43
2023-04-11T01:29:03.528Z,35.56
2023-04-11T01:30:03.574Z,39.24
2023-04-11T01:31:03.697Z,37.17
2023-04-11T01:32:03.661Z,37.65
2023-04-11T01:33:03.758Z,36.72
2023-04-11T01:34:03.791Z,34.37
2023-04-11T01:35:03.853Z,37.95
2023-04-11T01:36:03.934Z,37.66
2023-04-11T01:37:03.932Z,34.06
2023-04-11T01:38:03.975Z,39.07
2023-04-11T01:39:04.058Z,36.45
2023-04-11T01:40:04.101Z,34.45
2023-04-11T01:41:04.161Z,35.78
2023-04-11T01:42:04.266Z,32.71
2023-04-11T01:43:04.236Z,37.63
2023-04-11T01:44:04.318Z,35.40
2023-04-11T01:45:04.352Z,34.92
2023-04-11T01:46:04.393Z,35.03
2023-04-11T01:47:04.457Z,34.96
2023-04-11T01:48:04.566Z,34.04
2023-04-11T01:49:04.611Z,34.39
2023-04-11T01:50:04.602Z,34.21
2023-04-11T01:51:04.683Z,34.11
2023-04-11T01:52:04.714Z,34.73
2023-04-11T01:53:04.768Z,34.03
2023-04-11T01:54:04.833Z,34.29
2023-04-11T01:55:04.956Z,35.77
2023-04-11T01:56:04.919Z,36.41
2023-04-11T01:57:04.976Z,35.65
2023-04-11T01:58:05.075Z,35.64
2023-04-11T01:59:05.112Z,37.12
2023-04-11T02:00:05.194Z,36.39
2023-04-11T02:01:05.267Z,36.04
2023-04-11T02:02:05.324Z,37.37
2023-04-11T02:03:05.494Z,37.19
2023-04-11T02:04:05.520Z,37.56
2023-04-11T02:05:05.457Z,37.39
2023-04-11T02:06:05.533Z,33.36
2023-04-11T02:07:05.595Z,35.43
2023-04-11T02:08:05.638Z,33.77
2023-04-11T02:09:05.692Z,35.63
2023-04-11T02:10:05.739Z,33.69
2023-04-11T02:11:05.809Z,34.75
2023-04-11T02:12:05.862Z,35.47
2023-04-11T02:13:05.903Z,34.89
2023-04-11T02:14:05.960Z,33.64
2023-04-11T02:15:06.010Z,33.32
2023-04-11T02:16:06.077Z,35.00
2023-04-11T02:17:06.113Z,33.48
2023-04-11T02:18:06.217Z,33.65
2023-04-11T02:19:06.234Z,37.29
2023-04-11T02:20:06.288Z,37.50
2023-04-11T02:21:06.382Z,35.80
2023-04-11T02:22:06.429Z,36.80
2023-04-11T02:23:06.494Z,36.86
2023-04-11T02:24:06.555Z,34.43
2023-04-11T02:25:06.622Z,33.90
2023-04-11T02:26:06.671Z,35.16
2023-04-11T02:27:06.764Z,34.00
2023-04-11T02:28:08.200Z,36.75
2023-04-11T02:29:06.826Z,36.09
2023-04-11T02:30:06.866Z,33.50
2023-04-11T02:31:07.073Z,35.76
2023-04-11T02:32:07.127Z,33.24
2023-04-11T02:33:07.137Z,35.36
2023-04-11T02:34:07.147Z,32.76
2023-04-11T02:35:07.226Z,35.96
2023-04-11T02:36:07.282Z,35.61
2023-04-11T02:37:07.325Z,35.66
2023-04-11T02:38:07.400Z,36.18
2023-04-11T02:39:07.427Z,36.82
2023-04-11T02:40:07.493Z,35.09
2023-04-11T02:41:07.578Z,35.19
2023-04-11T02:42:07.611Z,34.24
2023-04-11T02:43:07.722Z,34.59
2023-04-11T02:44:07.736Z,33.46
2023-04-11T02:45:07.802Z,35.55
2023-04-11T02:46:12.801Z,33.29
2023-04-11T02:47:08.926Z,33.48
2023-04-11T02:48:07.861Z,33.84
2023-04-11T02:49:07.840Z,34.43
2023-04-11T02:50:07.849Z,36.02
2023-04-11T02:51:07.810Z,35.03
2023-04-11T02:52:07.808Z,35.30
2023-04-11T02:53:07.820Z,34.07
2023-04-11T02:54:07.820Z,32.13
2023-04-11T02:55:07.871Z,35.77
2023-04-11T02:56:07.923Z,34.62
2023-04-11T02:57:07.992Z,31.26
2023-04-11T02:58:08.051Z,35.07
2023-04-11T02:59:08.107Z,36.10
2023-04-11T03:00:08.185Z,33.99
2023-04-11T03:01:08.236Z,34.80
2023-04-11T03:02:08.424Z,36.14
2023-04-11T03:03:08.488Z,34.48
2023-04-11T03:04:08.486Z,33.37
2023-04-11T03:05:08.530Z,34.37
2023-04-11T03:06:08.546Z,36.60
2023-04-11T03:07:08.614Z,32.68
2023-04-11T03:08:08.681Z,34.63
2023-04-11T03:09:08.759Z,33.25
2023-04-11T03:10:08.828Z,35.43
2023-04-11T03:11:08.889Z,34.19
2023-04-11T03:12:08.914Z,34.27
2023-04-11T03:13:09.015Z,35.89
2023-04-11T03:14:09.049Z,34.42
2023-04-11T03:15:09.117Z,33.80
2023-04-11T03:16:09.185Z,33.99
2023-04-11T03:17:09.258Z,32.84
2023-04-11T03:18:09.311Z,32.94
2023-04-11T03:19:09.384Z,39.15
2023-04-11T03:20:09.445Z,34.20
2023-04-11T03:21:09.483Z,34.41
2023-04-11T03:22:09.568Z,35.81
2023-04-11T03:23:09.672Z,34.95
2023-04-11T03:24:09.701Z,34.46
2023-04-11T03:25:09.814Z,33.60
2023-04-11T03:26:09.836Z,34.34
2023-04-11T03:27:10.725Z,34.97
2023-04-11T03:28:09.971Z,35.60
2023-04-11T03:29:10.012Z,35.98
2023-04-11T03:30:10.092Z,35.91
2023-04-11T03:31:10.207Z,33.36
2023-04-11T03:32:10.225Z,35.30
2023-04-11T03:33:10.302Z,36.09
2023-04-11T03:34:10.339Z,38.25
2023-04-11T03:35:10.520Z,34.82
2023-04-11T03:36:10.649Z,34.51
2023-04-11T03:37:10.560Z,37.19
2023-04-11T03:38:10.563Z,35.77
2023-04-11T03:39:10.619Z,37.39
2023-04-11T03:40:10.726Z,35.14
2023-04-11T03:41:10.736Z,32.93
2023-04-11T03:42:10.792Z,34.44
2023-04-11T03:43:10.878Z,36.24
2023-04-11T03:44:10.963Z,34.81
2023-04-11T03:45:11.015Z,34.20
2023-04-11T03:46:11.118Z,33.10
2023-04-11T03:47:11.122Z,33.05
2023-04-11T03:48:11.193Z,33.67
2023-04-11T03:49:11.258Z,37.94
2023-04-11T03:50:11.316Z,32.90
2023-04-11T03:51:11.355Z,33.18
2023-04-11T03:52:11.473Z,35.21
2023-04-11T03:53:11.510Z,33.67
2023-04-11T03:54:11.536Z,36.42
2023-04-11T03:55:11.612Z,37.28
2023-04-11T03:56:11.692Z,34.00
2023-04-11T03:57:11.761Z,36.08
2023-04-11T03:58:11.785Z,35.85
2023-04-11T03:59:11.815Z,36.66
2023-04-11T04:00:11.866Z,34.08
2023-04-11T04:01:11.881Z,32.91
2023-04-11T04:02:12.164Z,33.87
2023-04-11T04:03:12.282Z,34.36
2023-04-11T04:04:12.109Z,35.00
2023-04-11T04:05:12.148Z,35.00
2023-04-11T04:06:12.166Z,32.10
2023-04-11T04:07:12.190Z,34.34
2023-04-11T04:08:12.226Z,34.95
2023-04-11T04:09:12.294Z,36.08
2023-04-11T04:10:12.366Z,32.30
2023-04-11T04:11:12.406Z,35.29
2023-04-11T04:12:12.443Z,34.09
2023-04-11T04:13:12.502Z,36.18
2023-04-11T04:14:12.553Z,35.13
2023-04-11T04:15:12.612Z,33.78
2023-04-11T04:16:12.685Z,34.28
2023-04-11T04:17:12.717Z,34.53
2023-04-11T04:18:12.776Z,33.44
2023-04-11T04:19:12.826Z,34.83
2023-04-11T04:20:12.912Z,32.95
2023-04-11T04:21:12.917Z,35.67
2023-04-11T04:22:12.969Z,34.56
2023-04-11T04:23:13.040Z,34.34
2023-04-11T04:24:13.060Z,35.62
2023-04-11T04:25:13.127Z,36.83
2023-04-11T04:26:13.225Z,33.54
2023-04-11T04:27:13.227Z,33.95
2023-04-11T04:28:13.281Z,36.35
2023-04-11T04:29:13.330Z,35.00
2023-04-11T04:30:13.374Z,33.95
2023-04-11T04:31:13.490Z,35.49
2023-04-11T04:32:13.464Z,33.41
2023-04-11T04:33:13.530Z,33.72
2023-04-11T04:34:13.593Z,34.51
2023-04-11T04:35:13.652Z,33.18
2023-04-11T04:36:13.673Z,34.20
2023-04-11T04:37:13.756Z,34.34
2023-04-11T04:38:13.779Z,33.17
2023-04-11T04:39:13.817Z,32.88
2023-04-11T04:40:13.885Z,33.66
2023-04-11T04:41:13.847Z,33.86
2023-04-11T04:42:13.893Z,31.38
2023-04-11T04:43:13.935Z,34.04
2023-04-11T04:44:13.926Z,32.79
2023-04-11T04:45:13.962Z,33.55
2023-04-11T04:46:14.021Z,32.45
2023-04-11T04:47:14.016Z,34.22
2023-04-11T04:48:14.019Z,35.03
2023-04-11T04:49:14.082Z,30.95
2023-04-11T04:50:14.118Z,33.05
2023-04-11T04:51:14.129Z,33.25
2023-04-11T04:52:14.151Z,31.85
2023-04-11T04:53:14.153Z,33.82
2023-04-11T04:54:14.171Z,32.42
2023-04-11T04:55:14.203Z,34.95
2023-04-11T04:56:14.204Z,34.07
2023-04-11T04:57:14.190Z,30.74
2023-04-11T04:58:14.258Z,33.23
2023-04-11T04:59:14.246Z,31.98
2023-04-11T05:00:14.249Z,34.07
2023-04-11T05:01:14.288Z,32.61
2023-04-11T05:02:14.447Z,32.22
2023-04-11T05:03:14.504Z,33.65
2023-04-11T05:04:14.452Z,32.97
2023-04-11T05:05:14.386Z,36.45
2023-04-11T05:06:14.365Z,31.37
2023-04-11T05:07:14.425Z,32.07
2023-04-11T05:08:14.424Z,32.85
2023-04-11T05:09:14.483Z,33.94
2023-04-11T05:10:14.495Z,33.79
2023-04-11T05:11:14.504Z,31.94
2023-04-11T05:12:14.561Z,32.07
2023-04-11T05:13:14.597Z,36.41
2023-04-11T05:14:14.602Z,35.47
2023-04-11T05:15:14.634Z,33.14
2023-04-11T05:16:14.725Z,32.43
2023-04-11T05:17:14.710Z,33.45
2023-04-11T05:18:14.745Z,35.99
2023-04-11T05:19:14.787Z,34.36
2023-04-11T05:20:14.785Z,33.09
2023-04-11T05:21:14.844Z,37.99
2023-04-11T05:22:14.844Z,31.95
2023-04-11T05:23:14.885Z,36.04
2023-04-11T05:24:14.881Z,36.08
2023-04-11T05:25:14.877Z,36.13
2023-04-11T05:26:14.953Z,32.85
2023-04-11T05:27:14.973Z,31.90
2023-04-11T05:28:14.997Z,34.06
2023-04-11T05:29:15.016Z,33.47
2023-04-11T05:30:15.064Z,34.41
2023-04-11T05:31:15.166Z,32.46
2023-04-11T05:32:15.104Z,33.48
2023-04-11T05:33:15.118Z,35.69
2023-04-11T05:34:15.146Z,33.32
2023-04-11T05:35:15.179Z,33.07
2023-04-11T05:36:15.236Z,36.34
2023-04-11T05:37:15.214Z,32.63
2023-04-11T05:38:15.212Z,35.41
2023-04-11T05:39:15.228Z,37.78
2023-04-11T05:40:15.260Z,32.67
2023-04-11T05:41:15.274Z,32.78
2023-04-11T05:42:15.312Z,35.03
2023-04-11T05:43:15.382Z,37.29
2023-04-11T05:44:15.393Z,35.93
2023-04-11T05:45:15.387Z,35.35
2023-04-11T05:46:15.466Z,38.16
2023-04-11T05:47:15.391Z,33.50
2023-04-11T05:48:16.171Z,36.59
2023-04-11T05:49:15.458Z,36.43
2023-04-11T05:50:15.478Z,36.70
2023-04-11T05:51:15.534Z,36.60
2023-04-11T05:52:15.543Z,35.71
2023-04-11T05:53:15.593Z,36.46
2023-04-11T05:54:15.617Z,38.85
2023-04-11T05:55:15.630Z,37.95
2023-04-11T05:56:15.689Z,36.65
2023-04-11T05:57:15.708Z,37.24
2023-04-11T05:58:15.746Z,36.48
2023-04-11T05:59:15.793Z,36.86
2023-04-11T06:00:15.808Z,39.77
2023-04-11T06:01:15.896Z,36.21
2023-04-11T06:02:16.018Z,39.19
2023-04-11T06:03:16.044Z,38.57
2023-04-11T06:04:16.169Z,37.75
2023-04-11T06:05:16.205Z,38.16
2023-04-11T06:06:16.095Z,39.21
2023-04-11T06:07:16.170Z,36.73
2023-04-11T06:08:16.189Z,41.82
2023-04-11T06:09:16.214Z,37.44
2023-04-11T06:10:16.302Z,41.74
2023-04-11T06:11:16.293Z,39.18
2023-04-11T06:12:16.380Z,36.97
2023-04-11T06:13:16.445Z,40.15
2023-04-11T06:14:16.512Z,43.17
2023-04-11T06:15:16.508Z,40.62
2023-04-11T06:16:16.581Z,39.25
2023-04-11T06:17:16.597Z,38.51
2023-04-11T06:18:16.678Z,42.59
2023-04-11T06:19:16.715Z,40.25
2023-04-11T06:20:16.759Z,38.40
2023-04-11T06:21:16.845Z,39.85
2023-04-11T06:22:16.898Z,39.97
2023-04-11T06:23:16.972Z,42.03
2023-04-11T06:24:17.034Z,43.02
2023-04-11T06:25:17.102Z,40.59
2023-04-11T06:26:17.170Z,39.45
2023-04-11T06:27:17.209Z,41.23
2023-04-11T06:28:17.325Z,41.65
2023-04-11T06:29:17.367Z,42.06
2023-04-11T06:30:17.429Z,43.15
2023-04-11T06:31:17.543Z,43.10
2023-04-11T06:32:17.565Z,41.92
2023-04-11T06:33:17.616Z,40.71
2023-04-11T06:34:17.683Z,42.44
2023-04-11T06:35:17.725Z,41.94
2023-04-11T06:36:17.841Z,43.85
2023-04-11T06:37:17.831Z,41.36
2023-04-11T06:38:17.878Z,42.52
2023-04-11T06:39:17.936Z,41.73
2023-04-11T06:40:18.010Z,44.40
2023-04-11T06:41:18.060Z,42.00
2023-04-11T06:42:18.170Z,47.20
2023-04-11T06:43:18.228Z,45.59
2023-04-11T06:44:18.301Z,43.33
2023-04-11T06:45:18.335Z,44.17
2023-04-11T06:46:18.466Z,46.31
2023-04-11T06:47:18.463Z,45.77
2023-04-11T06:48:18.512Z,46.31
2023-04-11T06:49:18.573Z,44.06
2023-04-11T06:50:18.627Z,44.93
2023-04-11T06:51:18.650Z,44.19
2023-04-11T06:52:18.739Z,43.84
2023-04-11T06:53:18.798Z,48.20
2023-04-11T06:54:18.841Z,45.85
2023-04-11T06:55:18.915Z,47.43
2023-04-11T06:56:19.001Z,48.83
2023-04-11T06:57:19.037Z,45.68
2023-04-11T06:58:19.085Z,47.16
2023-04-11T06:59:19.168Z,46.53
2023-04-11T07:00:19.205Z,48.88
2023-04-11T07:01:19.278Z,48.63
2023-04-11T07:02:19.540Z,47.27
2023-04-11T07:03:19.414Z,48.12
2023-04-11T07:04:19.601Z,50.07
2023-04-11T07:05:19.559Z,47.31
2023-04-11T07:06:19.576Z,48.51
2023-04-11T07:07:19.667Z,47.59
2023-04-11T07:08:19.694Z,50.12
2023-04-11T07:09:19.732Z,49.00
2023-04-11T07:10:19.800Z,48.67
2023-04-11T07:11:20.231Z,46.93
2023-04-11T07:12:19.947Z,47.68
2023-04-11T07:13:20.004Z,51.90
2023-04-11T07:14:20.047Z,49.76
2023-04-11T07:15:20.104Z,49.56
2023-04-11T07:16:20.263Z,49.88
2023-04-11T07:17:20.245Z,50.38
2023-04-11T07:18:20.294Z,51.32
2023-04-11T07:19:20.362Z,53.22
2023-04-11T07:20:20.426Z,51.73
2023-04-11T07:21:20.489Z,52.99
2023-04-11T07:22:20.530Z,51.66
2023-04-11T07:23:22.431Z,55.09
2023-04-11T07:24:20.600Z,54.87
2023-04-11T07:25:20.594Z,52.96
2023-04-11T07:26:20.611Z,53.40
2023-04-11T07:27:20.579Z,53.84
2023-04-11T07:28:20.571Z,52.83
2023-04-11T07:29:20.605Z,55.65
2023-04-11T07:30:20.565Z,55.54
2023-04-11T07:31:20.566Z,51.35
2023-04-11T07:32:20.567Z,54.78
2023-04-11T07:33:20.571Z,55.99
2023-04-11T07:34:20.556Z,53.95
2023-04-11T07:35:20.527Z,54.51
2023-04-11T07:36:20.567Z,55.40
2023-04-11T07:37:20.531Z,57.48
2023-04-11T07:38:20.505Z,53.47
2023-04-11T07:39:20.524Z,56.80
2023-04-11T07:40:20.504Z,56.56
2023-04-11T07:41:20.498Z,56.82
2023-04-11T07:42:20.485Z,57.46
2023-04-11T07:43:20.495Z,55.75
2023-04-11T07:44:20.475Z,56.39
2023-04-11T07:45:20.516Z,59.22
2023-04-11T07:46:20.471Z,59.67
2023-04-11T07:47:20.467Z,57.14
2023-04-11T07:48:20.459Z,59.09
2023-04-11T07:49:20.429Z,56.32
2023-04-11T07:50:20.441Z,58.68
2023-04-11T07:51:20.417Z,57.81
2023-04-11T07:52:20.394Z,60.90
2023-04-11T07:53:20.433Z,57.22
2023-04-11T07:54:20.420Z,59.73
2023-04-11T07:55:20.381Z,57.61
2023-04-11T07:56:20.391Z,58.93
2023-04-11T07:57:20.404Z,59.93
2023-04-11T07:58:20.377Z,60.04
2023-04-11T07:59:20.387Z,61.86
2023-04-11T08:00:20.422Z,58.65
2023-04-11T08:01:20.425Z,61.61
2023-04-11T08:02:20.708Z,62.92
2023-04-11T08:03:20.950Z,61.40
2023-04-11T08:04:20.819Z,60.49
2023-04-11T08:05:20.754Z,61.53
2023-04-11T08:06:20.764Z,61.20
2023-04-11T08:07:20.807Z,63.18
2023-04-11T08:08:20.883Z,62.76
2023-04-11T08:09:20.923Z,64.05
2023-04-11T08:10:20.998Z,62.09
2023-04-11T08:11:21.030Z,63.66
2023-04-11T08:12:21.110Z,63.86
2023-04-11T08:13:21.184Z,64.36
2023-04-11T08:14:21.223Z,65.21
2023-04-11T08:15:21.265Z,63.17
2023-04-11T08:16:21.357Z,62.81
2023-04-11T08:17:28.037Z,62.78
2023-04-11T08:18:22.430Z,63.11
2023-04-11T08:19:21.431Z,63.54
2023-04-11T08:20:21.397Z,64.00
2023-04-11T08:21:21.376Z,65.29
2023-04-11T08:22:21.362Z,67.04
2023-04-11T08:23:21.423Z,65.94
2023-04-11T08:24:21.357Z,66.24
2023-04-11T08:25:21.367Z,66.04
2023-04-11T08:26:21.321Z,65.91
2023-04-11T08:27:21.372Z,66.69
2023-04-11T08:28:21.432Z,67.12
2023-04-11T08:29:21.463Z,67.05
2023-04-11T08:30:21.550Z,67.46
2023-04-11T08:31:21.691Z,66.97
2023-04-11T08:32:21.661Z,66.15
2023-04-11T08:33:21.726Z,67.88
2023-04-11T08:34:21.744Z,70.14
2023-04-11T08:35:21.801Z,69.35
2023-04-11T08:36:21.855Z,67.75
2023-04-11T08:37:21.870Z,67.15
2023-04-11T08:38:21.978Z,70.44
2023-04-11T08:39:22.017Z,68.10
2023-04-11T08:40:22.055Z,70.28
2023-04-11T08:41:22.137Z,72.54
2023-04-11T08:42:22.173Z,69.49
2023-04-11T08:43:22.245Z,69.52
2023-04-11T08:44:22.431Z,69.37
2023-04-11T08:45:22.343Z,72.91
2023-04-11T08:46:22.442Z,72.72
2023-04-11T08:47:22.456Z,69.48
2023-04-11T08:48:22.498Z,71.73
2023-04-11T08:49:22.528Z,72.41
2023-04-11T08:50:22.581Z,71.95
2023-04-11T08:51:22.662Z,71.13
2023-04-11T08:52:22.685Z,70.76
2023-04-11T08:53:22.773Z,73.10
2023-04-11T08:54:22.822Z,72.61
2023-04-11T08:55:22.848Z,74.61
2023-04-11T08:56:22.949Z,73.29
2023-04-11T08:57:22.948Z,74.39
2023-04-11T08:58:23.071Z,73.95
2023-04-11T08:59:23.338Z,75.59
2023-04-11T09:00:23.191Z,75.06
2023-04-11T09:01:23.236Z,76.11
2023-04-11T09:02:23.290Z,74.06
2023-04-11T09:03:23.350Z,75.90
2023-04-11T09:04:23.395Z,73.86
2023-04-11T09:05:23.383Z,77.35
2023-04-11T09:06:23.439Z,77.21
2023-04-11T09:07:23.482Z,75.98
2023-04-11T09:08:23.550Z,76.52
2023-04-11T09:09:23.604Z,79.76
2023-04-11T09:10:23.669Z,77.16
2023-04-11T09:11:23.689Z,76.51
2023-04-11T09:12:23.721Z,79.23
2023-04-11T09:13:23.910Z,78.35
2023-04-11T09:14:23.931Z,81.74
2023-04-11T09:15:23.895Z,79.77
2023-04-11T09:16:24.025Z,77.91
2023-04-11T09:17:24.102Z,81.06
2023-04-11T09:18:24.058Z,80.43
2023-04-11T09:19:24.105Z,78.54
2023-04-11T09:20:24.218Z,80.76
2023-04-11T09:21:24.250Z,81.40
2023-04-11T09:22:24.271Z,79.59
2023-04-11T09:23:26.105Z,79.07
2023-04-11T09:24:24.338Z,81.68
2023-04-11T09:25:24.397Z,81.53
2023-04-11T09:26:24.319Z,79.57
2023-04-11T09:27:24.302Z,82.09
2023-04-11T09:28:24.274Z,82.35
2023-04-11T09:29:24.310Z,83.54
2023-04-11T09:30:24.336Z,83.44
2023-04-11T09:31:24.281Z,83.15
2023-04-11T09:32:24.474Z,83.71
2023-04-11T09:33:24.253Z,84.45
2023-04-11T09:34:24.290Z,82.27
2023-04-11T09:35:24.252Z,85.02
2023-04-11T09:36:24.255Z,84.03
2023-04-11T09:37:24.219Z,82.76
2023-04-11T09:38:24.204Z,85.58
2023-04-11T09:39:24.206Z,85.44
2023-04-11T09:40:24.198Z,84.09
2023-04-11T09:41:24.197Z,85.28
2023-04-11T09:42:24.196Z,84.46
2023-04-11T09:43:24.198Z,83.33
2023-04-11T09:44:24.154Z,85.62
2023-04-11T09:45:24.149Z,85.54
2023-04-11T09:46:24.189Z,88.57
2023-04-11T09:47:24.184Z,86.75
2023-04-11T09:48:32.050Z,87.40
2023-04-11T09:49:25.115Z,87.67
2023-04-11T09:50:24.116Z,87.98
2023-04-11T09:52:24.119Z,90.86
2023-04-11T09:53:24.121Z,89.04
2023-04-11T09:54:24.128Z,89.93
2023-04-11T09:55:24.109Z,85.44
2023-04-11T09:56:24.152Z,90.71
2023-04-11T09:57:24.057Z,90.12
2023-04-11T09:58:24.084Z,90.84
2023-04-11T09:59:24.076Z,91.71
2023-04-11T10:00:24.082Z,89.67
2023-04-11T10:01:24.098Z,88.67
2023-04-11T10:02:24.142Z,91.38
2023-04-11T10:03:24.120Z,88.55
2023-04-11T10:04:24.062Z,88.95
2023-04-11T10:05:24.032Z,89.00
2023-04-11T10:06:24.035Z,89.73
2023-04-11T10:07:24.036Z,91.85
2023-04-11T10:08:24.026Z,90.58
2023-04-11T10:09:24.041Z,91.69
2023-04-11T10:10:24.014Z,88.20
2023-04-11T10:11:24.424Z,91.45
2023-04-11T10:12:23.970Z,91.97
2023-04-11T10:13:23.958Z,93.39
2023-04-11T10:14:23.969Z,91.97
2023-04-11T10:15:23.976Z,93.74
2023-04-11T10:16:24.008Z,90.08
2023-04-11T10:17:24.607Z,93.07
2023-04-11T10:18:23.935Z,92.37
2023-04-11T10:19:23.931Z,93.24
2023-04-11T10:20:23.968Z,93.69
2023-04-11T10:21:23.911Z,90.31
2023-04-11T10:22:23.930Z,93.28
2023-04-11T10:23:23.907Z,93.66
2023-04-11T10:24:23.902Z,91.75
2023-04-11T10:25:23.901Z,95.07
2023-04-11T10:26:23.893Z,94.60
2023-04-11T10:27:23.885Z,92.63
2023-04-11T10:28:23.861Z,93.62
2023-04-11T10:29:23.888Z,97.02
2023-04-11T10:30:23.871Z,97.97
2023-04-11T10:31:23.943Z,94.27
2023-04-11T10:32:24.074Z,97.16
2023-04-11T10:33:24.050Z,94.53
2023-04-11T10:34:24.136Z,98.34
2023-04-11T10:35:24.152Z,95.98
2023-04-11T10:36:24.295Z,96.80
2023-04-11T10:37:24.308Z,97.03
2023-04-11T10:38:24.348Z,97.64
2023-04-11T10:39:24.422Z,98.98
2023-04-11T10:40:24.464Z,98.15
2023-04-11T10:41:24.501Z,95.18
2023-04-11T10:42:24.569Z,97.55
2023-04-11T10:43:24.653Z,99.37
2023-04-11T10:44:24.762Z,95.99
2023-04-11T10:45:24.806Z,97.72
2023-04-11T10:46:24.836Z,96.86
2023-04-11T10:47:24.862Z,97.88
2023-04-11T10:48:24.916Z,97.59
2023-04-11T10:49:24.956Z,98.97
2023-04-11T10:50:25.056Z,99.46
2023-04-11T10:51:25.059Z,100.86
2023-04-11T10:52:25.128Z,99.82
2023-04-11T10:53:25.189Z,100.09
2023-04-11T10:54:25.236Z,100.07
2023-04-11T10:55:25.288Z,99.92
2023-04-11T10:56:25.306Z,103.11
2023-04-11T10:57:25.374Z,101.07
2023-04-11T10:58:25.417Z,103.81
2023-04-11T10:59:25.474Z,101.12
2023-04-11T11:00:25.526Z,105.63
2023-04-11T11:01:32.411Z,104.46
2023-04-11T11:02:26.701Z,104.70
2023-04-11T11:03:25.712Z,105.00
2023-04-11T11:04:25.678Z,105.70
2023-04-11T11:05:25.606Z,107.82
2023-04-11T11:06:25.545Z,108.16
2023-04-11T11:07:25.514Z,110.27
2023-04-11T11:08:25.524Z,107.01
2023-04-11T11:09:25.559Z,108.49
2023-04-11T11:10:25.572Z,107.67
2023-04-11T11:11:25.533Z,109.13
2023-04-11T11:12:25.536Z,111.10
2023-04-11T11:13:25.502Z,107.84
2023-04-11T11:14:25.561Z,109.66
2023-04-11T11:15:25.591Z,106.64
2023-04-11T11:16:25.649Z,109.11
2023-04-11T11:17:25.728Z,110.15
2023-04-11T11:18:25.704Z,108.80
2023-04-11T11:19:25.814Z,110.09
2023-04-11T11:20:25.842Z,106.88
2023-04-11T11:21:27.712Z,107.30
2023-04-11T11:22:26.849Z,108.03
2023-04-11T11:23:26.106Z,108.10
2023-04-11T11:24:26.162Z,107.96
2023-04-11T11:25:26.220Z,109.53
2023-04-11T11:26:26.253Z,108.43
2023-04-11T11:27:26.302Z,108.08
2023-04-11T11:28:26.355Z,107.44
2023-04-11T11:29:26.386Z,109.70
2023-04-11T11:30:26.410Z,108.59
2023-04-11T11:31:26.465Z,110.23
2023-04-11T11:32:26.572Z,105.85
2023-04-11T11:33:26.593Z,108.91
2023-04-11T11:34:26.612Z,108.40
2023-04-11T11:35:26.646Z,106.11
2023-04-11T11:36:26.668Z,106.18
2023-04-11T11:37:26.719Z,108.26
2023-04-11T11:38:26.764Z,106.54
2023-04-11T11:39:26.797Z,108.72
2023-04-11T11:40:26.856Z,111.68
2023-04-11T11:41:26.890Z,111.71
2023-04-11T11:42:26.923Z,106.38
2023-04-11T11:43:26.952Z,111.86
2023-04-11T11:44:27.020Z,111.24
2023-04-11T11:45:27.107Z,107.38
2023-04-11T11:46:27.138Z,108.00
2023-04-11T11:47:27.180Z,107.97
2023-04-11T11:48:27.900Z,105.35
2023-04-11T11:49:27.245Z,110.96
2023-04-11T11:50:27.237Z,109.05
2023-04-11T11:51:27.323Z,111.92
2023-04-11T11:52:27.364Z,109.14
2023-04-11T11:53:27.376Z,110.75
2023-04-11T11:54:27.445Z,110.47
2023-04-11T11:55:27.480Z,110.69
2023-04-11T11:56:27.548Z,111.93
2023-04-11T11:57:27.604Z,113.68
2023-04-11T11:58:27.577Z,109.37
2023-04-11T11:59:27.635Z,114.00
2023-04-11T12:00:27.708Z,115.46
2023-04-11T12:01:27.710Z,112.82
2023-04-11T12:02:27.894Z,112.69
2023-04-11T12:03:28.034Z,111.42
2023-04-11T12:04:28.061Z,112.14
2023-04-11T12:05:27.955Z,114.24
2023-04-11T12:06:27.934Z,115.10
2023-04-11T12:07:27.968Z,115.53
2023-04-11T12:08:28.005Z,116.87
2023-04-11T12:09:28.071Z,114.65
2023-04-11T12:10:28.099Z,114.32
2023-04-11T12:11:28.157Z,115.38
2023-04-11T12:12:28.193Z,115.57
2023-04-11T12:13:28.245Z,117.68
2023-04-11T12:14:28.367Z,120.09
2023-04-11T12:15:28.316Z,117.25
2023-04-11T12:16:28.395Z,114.65
2023-04-11T12:17:28.422Z,119.50
2023-04-11T12:18:28.413Z,116.11
2023-04-11T12:19:28.447Z,116.01
2023-04-11T12:20:28.484Z,119.15
2023-04-11T12:21:28.524Z,118.16
2023-04-11T12:22:28.557Z,114.87
2023-04-11T12:23:28.586Z,114.87
2023-04-11T12:24:28.624Z,115.49
2023-04-11T12:25:28.697Z,118.14
2023-04-11T12:26:28.724Z,116.75
2023-04-11T12:27:28.755Z,116.64
2023-04-11T12:28:28.802Z,119.49
2023-04-11T12:29:28.842Z,118.04
2023-04-11T12:30:30.082Z,116.59
2023-04-11T12:31:28.958Z,118.47
2023-04-11T12:32:28.978Z,115.62
2023-04-11T12:33:28.991Z,118.88
2023-04-11T12:34:29.025Z,118.66
2023-04-11T12:35:29.065Z,118.06
2023-04-11T12:36:29.152Z,117.90
2023-04-11T12:37:29.159Z,115.84
2023-04-11T12:38:29.180Z,118.29
2023-04-11T12:39:29.214Z,116.91
2023-04-11T12:40:29.250Z,119.84
2023-04-11T12:41:31.442Z,120.80
2023-04-11T12:42:29.477Z,118.67
2023-04-11T12:43:29.553Z,118.10
2023-04-11T12:44:29.602Z,120.57
2023-04-11T12:45:29.627Z,121.21
2023-04-11T12:46:29.669Z,122.47
2023-04-11T12:47:29.778Z,120.75
2023-04-11T12:48:29.765Z,121.09
2023-04-11T12:49:29.808Z,123.28
2023-04-11T12:50:29.869Z,122.83